This is the latest recevied weather packets stored in our database for station/object LZ2SLL-13. If no packets are shown the sender has not sent any weather packets the latest 1 day(s).
| Time | Temp. | Humidity | Pressure | Rain* | Wind** | Luminosity | Snow |
|---|---|---|---|---|---|---|---|
| 1778045729 | 13.89° C | 67% | - | 0 mm | - | 75 W/m² | - |
| 1778044827 | 13.33° C | 72% | - | 0 mm | - | 299 W/m² | - |
| 1778044526 | 13.33° C | 74% | - | 0 mm | - | 278 W/m² | - |
| 1778043924 | 12.22° C | 72% | - | 0 mm | - | 90 W/m² | - |
| 1778043323 | 11.67° C | 70% | - | 0 mm | - | 97 W/m² | - |
| 1778043022 | 11.67° C | 65% | - | 0 mm | - | 65 W/m² | - |
| 1778042421 | 11.67° C | 57% | - | 0 mm | - | 59 W/m² | - |
| 1778042120 | 12.22° C | 52% | - | 0 mm | - | 57 W/m² | - |
| 1778041519 | 12.78° C | 49% | - | 0 mm | - | 55 W/m² | - |
| 1778041218 | 12.78° C | 48% | - | 0 mm | - | 53 W/m² | - |
| 1778040917 | 13.33° C | 42% | - | 0 mm | - | 52 W/m² | - |
| 1778040617 | 13.33° C | 40% | - | 0 mm | - | 48 W/m² | - |
| 1778040316 | 13.89° C | 37% | - | 0 mm | - | 47 W/m² | - |
| 1778039715 | 13.33° C | 41% | - | 0 mm | - | 41 W/m² | - |
| 1778039414 | 13.33° C | 40% | - | 0 mm | - | 40 W/m² | - |
| 1778039113 | 13.33° C | 41% | - | 0 mm | - | 37 W/m² | - |
| 1778038512 | 13.89° C | 37% | - | 0 mm | - | 31 W/m² | - |
| 1778038211 | 13.33° C | 39% | - | 0 mm | - | 27 W/m² | - |
| 1778037610 | 13.33° C | 40% | - | 0 mm | - | 20 W/m² | - |
| 1778037309 | 13.89° C | 38% | - | 0 mm | - | 16 W/m² | - |
| 1778036407 | 13.33° C | 40% | - | 0 mm | - | 6 W/m² | - |
| 1778035505 | 13.89° C | 39% | - | 0 mm | - | 1 W/m² | - |
| 1778034603 | 13.33° C | 41% | - | 0 mm | - | 0 W/m² | - |
| 1778034301 | 13.33° C | 42% | - | 0 mm | - | 0 W/m² | - |
| 1778033999 | 13.33° C | 43% | - | 0 mm | - | 0 W/m² | - |
* Rain latest hour (hover to see other rain measurements)
** Current wind speed in m/s (hover to see current wind gust speed)